Time,TemperatureF,DewpointF,PressureIn,WindDirection,WindDirectionDegrees,WindSpeedMPH,WindSpeedGustMPH,Humidity,HourlyPrecipIn,Conditions,Clouds,dailyrainin,SoftwareType,DateUTC
2013-03-30 00:00:00,34.0,26.6,30.27,SSE,167,0.0,3.0,74,0.00,,---,0.00,VWS V14.01,2013-03-30 04:00:00,
2013-03-30 00:01:00,34.0,26.6,30.27,SSE,167,0.0,0.0,74,0.00,,---,0.00,VWS V14.01,2013-03-30 04:01:00,
2013-03-30 00:06:00,34.1,26.7,30.27,SSE,167,0.0,0.0,74,0.00,,---,0.00,VWS V14.01,2013-03-30 04:06:00,
2013-03-30 00:11:00,34.0,26.6,30.27,SSE,167,0.0,0.0,74,0.00,,---,0.00,VWS V14.01,2013-03-30 04:11:00,
2013-03-30 00:16:00,34.0,26.6,30.27,SSE,167,0.0,0.0,74,0.00,,---,0.00,VWS V14.01,2013-03-30 04:16:00,
2013-03-30 00:21:00,34.0,26.6,30.27,SSE,167,0.0,0.0,74,0.00,,---,0.00,VWS V14.01,2013-03-30 04:21:00,
2013-03-30 00:26:00,33.9,26.5,30.26,SSE,167,0.0,0.0,74,0.00,,---,0.00,VWS V14.01,2013-03-30 04:26:00,
2013-03-30 00:31:00,33.9,26.5,30.27,SSE,167,0.0,0.0,74,0.00,,---,0.00,VWS V14.01,2013-03-30 04:31:00,
2013-03-30 00:36:00,33.7,26.6,30.26,SSE,168,0.0,0.0,75,0.00,,---,0.00,VWS V14.01,2013-03-30 04:36:00,
2013-03-30 00:41:00,33.7,26.3,30.26,SSE,167,0.0,0.0,74,0.00,,---,0.00,VWS V14.01,2013-03-30 04:41:00,
2013-03-30 00:46:00,33.9,26.2,30.26,SSE,167,0.0,0.0,73,0.00,,---,0.00,VWS V14.01,2013-03-30 04:46:00,
2013-03-30 00:51:00,34.5,26.4,30.26,SSE,167,0.0,0.0,72,0.00,,---,0.00,VWS V14.01,2013-03-30 04:51:00,
2013-03-30 00:56:00,34.7,26.3,30.26,SSE,167,0.0,0.0,71,0.00,,---,0.00,VWS V14.01,2013-03-30 04:56:00,
2013-03-30 01:01:00,34.6,26.2,30.26,WSW,242,0.0,0.0,71,0.00,,---,0.00,VWS V14.01,2013-03-30 05:01:00,
2013-03-30 01:06:00,34.5,25.7,30.26,WSW,242,0.0,0.0,70,0.00,,---,0.00,VWS V14.01,2013-03-30 05:06:00,
2013-03-30 01:11:00,34.5,26.1,30.26,WSW,242,0.0,0.0,71,0.00,,---,0.00,VWS V14.01,2013-03-30 05:11:00,
2013-03-30 01:17:00,34.5,25.7,30.26,WSW,242,0.0,0.0,70,0.00,,---,0.00,VWS V14.01,2013-03-30 05:17:00,
2013-03-30 01:22:00,34.4,25.6,30.26,WSW,240,0.0,1.0,70,0.00,,---,0.00,VWS V14.01,2013-03-30 05:22:00,
2013-03-30 01:27:00,33.8,26.4,30.26,WSW,240,0.0,1.0,74,0.00,,---,0.00,VWS V14.01,2013-03-30 05:27:00,
2013-03-30 01:32:00,33.0,26.6,30.26,WSW,240,0.0,1.0,77,0.00,,---,0.00,VWS V14.01,2013-03-30 05:32:00,
2013-03-30 01:37:00,32.6,25.9,30.26,WSW,241,0.0,1.0,76,0.00,,---,0.00,VWS V14.01,2013-03-30 05:37:00,
2013-03-30 01:42:00,32.6,25.9,30.26,WSW,240,0.0,1.0,76,0.00,,---,0.00,VWS V14.01,2013-03-30 05:42:00,
2013-03-30 01:47:00,32.4,26.3,30.25,WSW,240,1.0,1.0,78,0.00,,---,0.00,VWS V14.01,2013-03-30 05:47:00,
2013-03-30 01:52:00,32.3,26.2,30.25,WSW,240,0.0,1.0,78,0.00,,---,0.00,VWS V14.01,2013-03-30 05:52:00,
2013-03-30 01:57:00,32.1,26.3,30.26,WSW,240,0.0,1.0,79,0.00,,---,0.00,VWS V14.01,2013-03-30 05:57:00,
2013-03-30 02:02:00,32.1,26.6,30.26,WSW,240,0.0,1.0,80,0.00,,---,0.00,VWS V14.01,2013-03-30 06:02:00,
2013-03-30 02:07:00,31.9,26.4,30.25,WSW,240,0.0,1.0,80,0.00,,---,0.00,VWS V14.01,2013-03-30 06:07:00,
2013-03-30 02:12:00,31.8,26.6,30.25,WSW,240,0.0,1.0,81,0.00,,---,0.00,VWS V14.01,2013-03-30 06:12:00,
2013-03-30 02:17:00,31.8,26.9,30.25,SW,217,0.0,1.0,82,0.00,,---,0.00,VWS V14.01,2013-03-30 06:17:00,
2013-03-30 02:22:00,31.9,27.0,30.25,SW,221,0.0,1.0,82,0.00,,---,0.00,VWS V14.01,2013-03-30 06:22:00,
2013-03-30 02:27:00,31.9,27.3,30.25,SW,221,0.0,1.0,83,0.00,,---,0.00,VWS V14.01,2013-03-30 06:27:00,
2013-03-30 02:32:00,31.6,26.8,30.25,SSW,205,0.0,0.0,82,0.00,,---,0.00,VWS V14.01,2013-03-30 06:32:00,
2013-03-30 02:37:00,31.2,26.9,30.25,SSW,205,0.0,1.0,84,0.00,,---,0.00,VWS V14.01,2013-03-30 06:37:00,
2013-03-30 02:42:00,31.2,26.9,30.25,SSW,206,0.0,1.0,84,0.00,,---,0.00,VWS V14.01,2013-03-30 06:42:00,
2013-03-30 02:47:00,31.1,26.8,30.25,SSW,205,0.0,1.0,84,0.00,,---,0.00,VWS V14.01,2013-03-30 06:47:00,
2013-03-30 02:52:00,31.0,26.7,30.25,SSW,205,0.0,1.0,84,0.00,,---,0.00,VWS V14.01,2013-03-30 06:52:00,
2013-03-30 02:57:00,31.1,26.8,30.24,SSW,207,1.0,2.0,84,0.00,,---,0.00,VWS V14.01,2013-03-30 06:57:00,
2013-03-30 03:02:00,31.0,26.7,30.24,SSW,205,0.0,1.0,84,0.00,,---,0.00,VWS V14.01,2013-03-30 07:02:00,
2013-03-30 03:07:00,31.0,26.7,30.24,SSW,204,0.0,1.0,84,0.00,,---,0.00,VWS V14.01,2013-03-30 07:07:00,
2013-03-30 03:12:00,30.9,26.6,30.24,SSW,204,0.0,1.0,84,0.00,,---,0.00,VWS V14.01,2013-03-30 07:12:00,
2013-03-30 03:17:00,30.9,26.6,30.24,SSW,204,0.0,1.0,84,0.00,,---,0.00,VWS V14.01,2013-03-30 07:17:00,
2013-03-30 03:22:00,30.7,26.5,30.24,SSW,204,0.0,1.0,84,0.00,,---,0.00,VWS V14.01,2013-03-30 07:22:00,
2013-03-30 03:27:00,30.2,26.0,30.24,SSW,205,0.0,1.0,84,0.00,,---,0.00,VWS V14.01,2013-03-30 07:27:00,
2013-03-30 03:32:00,30.1,26.1,30.24,SSW,205,0.0,0.0,85,0.00,,---,0.00,VWS V14.01,2013-03-30 07:32:00,
2013-03-30 03:37:00,30.0,26.3,30.24,SSW,204,0.0,0.0,86,0.00,,---,0.00,VWS V14.01,2013-03-30 07:37:00,
2013-03-30 03:42:00,30.0,26.3,30.24,SSW,204,0.0,0.0,86,0.00,,---,0.00,VWS V14.01,2013-03-30 07:42:00,
2013-03-30 03:47:00,30.0,26.3,30.24,SSW,204,0.0,0.0,86,0.00,,---,0.00,VWS V14.01,2013-03-30 07:47:00,
2013-03-30 03:52:00,29.5,25.8,30.24,SSW,204,0.0,0.0,86,0.00,,---,0.00,VWS V14.01,2013-03-30 07:52:00,
2013-03-30 03:57:00,29.2,25.8,30.24,SSW,204,0.0,0.0,87,0.00,,---,0.00,VWS V14.01,2013-03-30 07:57:00,
2013-03-30 04:02:00,29.3,26.2,30.24,SSW,204,0.0,0.0,88,0.00,,---,0.00,VWS V14.01,2013-03-30 08:02:00,
2013-03-30 04:07:00,29.3,26.2,30.24,SSW,204,0.0,0.0,88,0.00,,---,0.00,VWS V14.01,2013-03-30 08:07:00,
2013-03-30 04:13:00,29.3,26.5,30.23,SSW,205,1.0,1.0,89,0.00,,---,0.00,VWS V14.01,2013-03-30 08:13:00,
2013-03-30 04:18:00,29.7,26.9,30.23,SSW,205,0.0,1.0,89,0.00,,---,0.00,VWS V14.01,2013-03-30 08:18:00,
2013-03-30 04:23:00,30.1,27.3,30.23,SSW,205,0.0,1.0,89,0.00,,---,0.00,VWS V14.01,2013-03-30 08:23:00,
2013-03-30 04:28:00,30.2,27.1,30.23,SSW,205,0.0,1.0,88,0.00,,---,0.00,VWS V14.01,2013-03-30 08:28:00,
2013-03-30 04:33:00,30.1,27.0,30.23,SSW,205,0.0,0.0,88,0.00,,---,0.00,VWS V14.01,2013-03-30 08:33:00,
2013-03-30 04:38:00,29.8,26.7,30.23,SSW,205,0.0,0.0,88,0.00,,---,0.00,VWS V14.01,2013-03-30 08:38:00,
2013-03-30 04:43:00,29.7,26.6,30.23,SSW,205,0.0,0.0,88,0.00,,---,0.00,VWS V14.01,2013-03-30 08:43:00,
2013-03-30 04:48:00,29.4,26.6,30.23,SSW,205,0.0,0.0,89,0.00,,---,0.00,VWS V14.01,2013-03-30 08:48:00,
2013-03-30 04:53:00,29.1,26.3,30.23,SSW,205,0.0,0.0,89,0.00,,---,0.00,VWS V14.01,2013-03-30 08:53:00,
2013-03-30 04:58:00,29.1,26.5,30.23,SSW,205,0.0,1.0,90,0.00,,---,0.00,VWS V14.01,2013-03-30 08:58:00,
2013-03-30 05:03:00,29.3,26.7,30.23,SSW,205,0.0,1.0,90,0.00,,---,0.00,VWS V14.01,2013-03-30 09:03:00,
2013-03-30 05:08:00,29.5,27.2,30.23,SSW,205,0.0,1.0,91,0.00,,---,0.00,VWS V14.01,2013-03-30 09:08:00,
2013-03-30 05:13:00,29.7,27.1,30.23,SSW,206,0.0,1.0,90,0.00,,---,0.00,VWS V14.01,2013-03-30 09:13:00,
2013-03-30 05:18:00,29.7,27.1,30.23,SSW,205,0.0,1.0,90,0.00,,---,0.00,VWS V14.01,2013-03-30 09:18:00,
2013-03-30 05:23:00,29.5,26.9,30.23,SSW,205,0.0,1.0,90,0.00,,---,0.00,VWS V14.01,2013-03-30 09:23:00,
2013-03-30 05:28:00,29.2,26.6,30.23,SSW,205,0.0,1.0,90,0.00,,---,0.00,VWS V14.01,2013-03-30 09:28:00,
2013-03-30 05:33:00,29.0,26.7,30.23,SSW,205,0.0,0.0,91,0.00,,---,0.00,VWS V14.01,2013-03-30 09:33:00,
2013-03-30 05:34:00,28.9,26.6,30.23,SSW,206,0.0,0.0,91,0.00,,---,0.00,VWS V14.01,2013-03-30 09:34:00,
2013-03-30 05:39:00,28.8,26.5,30.23,SSW,205,0.0,0.0,91,0.00,,---,0.00,VWS V14.01,2013-03-30 09:39:00,
2013-03-30 05:44:00,28.7,26.7,30.23,SSW,205,0.0,0.0,92,0.00,,---,0.00,VWS V14.01,2013-03-30 09:44:00,
2013-03-30 05:49:00,28.6,26.6,30.23,SSW,205,0.0,0.0,92,0.00,,---,0.00,VWS V14.01,2013-03-30 09:49:00,
2013-03-30 05:54:00,28.6,26.6,30.24,SSW,205,0.0,0.0,92,0.00,,---,0.00,VWS V14.01,2013-03-30 09:54:00,
2013-03-30 05:59:00,28.6,26.6,30.23,SSW,204,0.0,0.0,92,0.00,,---,0.00,VWS V14.01,2013-03-30 09:59:00,
2013-03-30 06:04:00,28.5,26.5,30.23,SSW,204,0.0,0.0,92,0.00,,---,0.00,VWS V14.01,2013-03-30 10:04:00,
2013-03-30 06:09:00,28.2,26.2,30.24,SSW,205,0.0,0.0,92,0.00,,---,0.00,VWS V14.01,2013-03-30 10:09:00,
2013-03-30 06:14:00,28.0,26.2,30.24,SSW,205,0.0,0.0,93,0.00,,---,0.00,VWS V14.01,2013-03-30 10:14:00,
2013-03-30 06:19:00,27.9,26.1,30.24,SSW,205,0.0,0.0,93,0.00,,---,0.00,VWS V14.01,2013-03-30 10:19:00,
2013-03-30 06:24:00,27.7,25.9,30.24,SSW,205,0.0,1.0,93,0.00,,---,0.00,VWS V14.01,2013-03-30 10:24:00,
2013-03-30 06:29:00,27.4,25.6,30.24,SSW,203,0.0,1.0,93,0.00,,---,0.00,VWS V14.01,2013-03-30 10:29:00,
2013-03-30 06:34:00,27.3,25.5,30.24,SSW,203,0.0,1.0,93,0.00,,---,0.00,VWS V14.01,2013-03-30 10:34:00,
2013-03-30 06:39:00,27.3,25.8,30.24,SSW,203,0.0,1.0,94,0.00,,---,0.00,VWS V14.01,2013-03-30 10:39:00,
2013-03-30 06:44:00,27.4,25.9,30.24,SSW,203,0.0,1.0,94,0.00,,---,0.00,VWS V14.01,2013-03-30 10:44:00,
2013-03-30 06:49:00,27.4,25.9,30.24,SSW,195,0.0,1.0,94,0.00,,---,0.00,VWS V14.01,2013-03-30 10:49:00,
2013-03-30 06:54:00,27.5,26.0,30.24,SSW,195,0.0,1.0,94,0.00,,---,0.00,VWS V14.01,2013-03-30 10:54:00,
2013-03-30 06:59:00,27.4,25.9,30.24,SSW,195,0.0,1.0,94,0.00,,---,0.00,VWS V14.01,2013-03-30 10:59:00,
2013-03-30 07:04:00,27.4,25.9,30.24,SSW,195,0.0,0.0,94,0.00,,---,0.00,VWS V14.01,2013-03-30 11:04:00,
2013-03-30 07:09:00,27.4,25.9,30.25,SSW,195,0.0,0.0,94,0.00,,---,0.00,VWS V14.01,2013-03-30 11:09:00,
2013-03-30 07:14:00,27.6,26.4,30.24,SSW,195,0.0,0.0,95,0.00,,---,0.00,VWS V14.01,2013-03-30 11:14:00,
2013-03-30 07:19:00,27.8,26.6,30.25,SSW,195,0.0,0.0,95,0.00,,---,0.00,VWS V14.01,2013-03-30 11:19:00,
2013-03-30 07:24:00,27.7,26.5,30.25,SSW,195,0.0,0.0,95,0.00,,---,0.00,VWS V14.01,2013-03-30 11:24:00,
2013-03-30 07:29:00,27.7,26.2,30.25,SSW,195,0.0,0.0,94,0.00,,---,0.00,VWS V14.01,2013-03-30 11:29:00,
2013-03-30 07:34:00,27.7,26.5,30.25,SSW,195,0.0,0.0,95,0.00,,---,0.00,VWS V14.01,2013-03-30 11:34:00,
2013-03-30 07:39:00,28.1,26.9,30.25,SSW,195,0.0,0.0,95,0.00,,---,0.00,VWS V14.01,2013-03-30 11:39:00,
2013-03-30 07:44:00,28.2,27.0,30.25,SSW,195,0.0,0.0,95,0.00,,---,0.00,VWS V14.01,2013-03-30 11:44:00,
2013-03-30 07:49:00,28.1,26.6,30.26,SSW,195,0.0,1.0,94,0.00,,---,0.00,VWS V14.01,2013-03-30 11:49:00,
2013-03-30 07:54:00,28.0,26.5,30.26,SSW,195,0.0,1.0,94,0.00,,---,0.00,VWS V14.01,2013-03-30 11:54:00,
2013-03-30 07:59:00,28.2,26.7,30.26,SSW,195,0.0,1.0,94,0.00,,---,0.00,VWS V14.01,2013-03-30 11:59:00,
2013-03-30 08:05:00,28.7,27.2,30.26,SSW,195,0.0,0.0,94,0.00,,---,0.00,VWS V14.01,2013-03-30 12:05:00,
2013-03-30 08:10:00,29.5,28.0,30.26,SSW,195,0.0,0.0,94,0.00,,---,0.00,VWS V14.01,2013-03-30 12:10:00,
2013-03-30 08:15:00,30.5,29.0,30.26,SSW,196,0.0,1.0,94,0.00,,---,0.00,VWS V14.01,2013-03-30 12:15:00,
2013-03-30 08:20:00,31.3,29.5,30.26,SSW,195,0.0,1.0,93,0.00,,---,0.00,VWS V14.01,2013-03-30 12:20:00,
2013-03-30 08:25:00,32.5,30.4,30.26,SSW,195,0.0,1.0,92,0.00,,---,0.00,VWS V14.01,2013-03-30 12:25:00,
2013-03-30 08:30:00,33.6,30.7,30.26,SSE,155,0.0,0.0,89,0.00,,---,0.00,VWS V14.01,2013-03-30 12:30:00,
2013-03-30 08:35:00,34.0,30.5,30.27,SSE,155,0.0,0.0,87,0.00,,---,0.00,VWS V14.01,2013-03-30 12:35:00,
2013-03-30 08:40:00,34.1,30.4,30.27,SSE,155,0.0,0.0,86,0.00,,---,0.00,VWS V14.01,2013-03-30 12:40:00,
2013-03-30 08:45:00,34.8,31.3,30.27,SSE,155,0.0,0.0,87,0.00,,---,0.00,VWS V14.01,2013-03-30 12:45:00,
2013-03-30 08:50:00,36.6,32.5,30.27,SSE,153,0.0,1.0,85,0.00,,---,0.00,VWS V14.01,2013-03-30 12:50:00,
2013-03-30 08:55:00,36.9,31.6,30.27,ESE,123,1.0,1.0,81,0.00,,---,0.00,VWS V14.01,2013-03-30 12:55:00,
2013-03-30 09:00:00,37.0,31.7,30.27,ESE,122,1.0,1.0,81,0.00,,---,0.00,VWS V14.01,2013-03-30 13:00:00,
2013-03-30 09:05:00,37.8,32.5,30.27,SE,124,0.0,1.0,81,0.00,,---,0.00,VWS V14.01,2013-03-30 13:05:00,
2013-03-30 09:10:00,38.9,33.0,30.27,SE,124,0.0,1.0,79,0.00,,---,0.00,VWS V14.01,2013-03-30 13:10:00,
2013-03-30 09:15:00,39.8,33.5,30.27,SE,124,0.0,1.0,78,0.00,,---,0.00,VWS V14.01,2013-03-30 13:15:00,
2013-03-30 09:20:00,41.0,34.0,30.27,SE,124,0.0,1.0,76,0.00,,---,0.00,VWS V14.01,2013-03-30 13:20:00,
2013-03-30 09:25:00,42.4,34.0,30.27,SE,124,0.0,1.0,72,0.00,,---,0.00,VWS V14.01,2013-03-30 13:25:00,
2013-03-30 09:30:00,43.1,34.0,30.27,East,99,1.0,1.0,70,0.00,,---,0.00,VWS V14.01,2013-03-30 13:30:00,
2013-03-30 09:35:00,43.6,33.4,30.27,East,100,0.0,1.0,67,0.00,,---,0.00,VWS V14.01,2013-03-30 13:35:00,
2013-03-30 09:40:00,44.4,33.0,30.27,SW,218,1.0,1.0,64,0.00,,---,0.00,VWS V14.01,2013-03-30 13:40:00,
2013-03-30 09:45:00,43.6,31.0,30.27,SSE,150,2.0,2.0,61,0.00,,---,0.00,VWS V14.01,2013-03-30 13:45:00,
2013-03-30 09:50:00,44.0,31.0,30.27,SW,236,0.0,2.0,60,0.00,,---,0.00,VWS V14.01,2013-03-30 13:50:00,
2013-03-30 09:55:00,44.7,31.3,30.27,SE,136,0.0,2.0,59,0.00,,---,0.00,VWS V14.01,2013-03-30 13:55:00,
2013-03-30 10:00:00,45.1,31.2,30.27,ESE,115,1.0,2.0,58,0.00,,---,0.00,VWS V14.01,2013-03-30 14:00:00,
2013-03-30 10:05:00,44.9,31.0,30.26,SE,138,1.0,3.0,58,0.00,,---,0.00,VWS V14.01,2013-03-30 14:05:00,
2013-03-30 10:10:00,44.8,29.6,30.26,West,277,0.0,4.0,55,0.00,,---,0.00,VWS V14.01,2013-03-30 14:10:00,
2013-03-30 10:15:00,44.5,29.4,30.26,NNE,20,2.0,4.0,55,0.00,,---,0.00,VWS V14.01,2013-03-30 14:15:00,
2013-03-30 10:20:00,44.6,29.0,30.26,SSW,207,5.0,6.0,54,0.00,,---,0.00,VWS V14.01,2013-03-30 14:20:00,
2013-03-30 10:25:00,44.5,28.5,30.25,SW,214,4.0,6.0,53,0.00,,---,0.00,VWS V14.01,2013-03-30 14:25:00,
2013-03-30 10:30:00,44.7,27.2,30.25,WNW,290,2.0,5.0,50,0.00,,---,0.00,VWS V14.01,2013-03-30 14:30:00,
2013-03-30 10:36:00,44.9,29.3,30.25,NW,309,2.0,5.0,54,0.00,,---,0.00,VWS V14.01,2013-03-30 14:36:00,
2013-03-30 10:41:00,45.5,28.9,30.25,WNW,284,1.0,5.0,52,0.00,,---,0.00,VWS V14.01,2013-03-30 14:41:00,
2013-03-30 10:46:00,45.8,28.2,30.25,WNW,300,0.0,5.0,50,0.00,,---,0.00,VWS V14.01,2013-03-30 14:46:00,
2013-03-30 10:51:00,46.0,27.4,30.24,SW,214,3.0,6.0,48,0.00,,---,0.00,VWS V14.01,2013-03-30 14:51:00,
2013-03-30 10:56:00,46.3,29.6,30.24,WNW,302,0.0,6.0,52,0.00,,---,0.00,VWS V14.01,2013-03-30 14:56:00,
2013-03-30 11:01:00,45.9,27.8,30.24,SE,136,1.0,3.0,49,0.00,,---,0.00,VWS V14.01,2013-03-30 15:01:00,
2013-03-30 11:06:00,46.1,29.0,30.23,North,352,1.0,4.0,51,0.00,,---,0.00,VWS V14.01,2013-03-30 15:06:00,
2013-03-30 11:11:00,46.3,28.2,30.23,SW,222,3.0,5.0,49,0.00,,---,0.00,VWS V14.01,2013-03-30 15:11:00,
2013-03-30 11:16:00,46.2,28.6,30.23,SSW,212,5.0,6.0,50,0.00,,---,0.00,VWS V14.01,2013-03-30 15:16:00,
2013-03-30 11:22:00,45.9,27.8,30.23,SSW,198,3.0,8.0,49,0.00,,---,0.00,VWS V14.01,2013-03-30 15:22:00,
2013-03-30 11:27:00,45.9,27.3,30.23,SSW,202,4.0,8.0,48,0.00,,---,0.00,VWS V14.01,2013-03-30 15:27:00,
2013-03-30 11:32:00,46.2,28.1,30.23,ENE,73,1.0,2.0,49,0.00,,---,0.00,VWS V14.01,2013-03-30 15:32:00,
2013-03-30 11:37:00,46.8,27.6,30.23,SW,226,3.0,6.0,47,0.00,,---,0.00,VWS V14.01,2013-03-30 15:37:00,
2013-03-30 11:42:00,46.4,28.3,30.23,SSW,207,2.0,6.0,49,0.00,,---,0.00,VWS V14.01,2013-03-30 15:42:00,
2013-03-30 11:47:00,46.7,28.6,30.22,SSW,210,4.0,6.0,49,0.00,,---,0.00,VWS V14.01,2013-03-30 15:47:00,
2013-03-30 11:52:00,47.2,28.0,30.22,SSW,212,0.0,6.0,47,0.00,,---,0.00,VWS V14.01,2013-03-30 15:52:00,
2013-03-30 11:57:00,47.0,28.3,30.22,WSW,240,5.0,6.0,48,0.00,,---,0.00,VWS V14.01,2013-03-30 15:57:00,
2013-03-30 12:02:00,47.3,28.1,30.21,WNW,300,0.0,2.0,47,0.00,,---,0.00,VWS V14.01,2013-03-30 16:02:00,
2013-03-30 12:07:00,47.9,29.2,30.21,East,101,3.0,5.0,48,0.00,,---,0.00,VWS V14.01,2013-03-30 16:07:00,
2013-03-30 12:12:00,47.7,28.0,30.21,SE,132,4.0,8.0,46,0.00,,---,0.00,VWS V14.01,2013-03-30 16:12:00,
2013-03-30 12:17:00,47.6,29.9,30.21,East,97,4.0,8.0,50,0.00,,---,0.00,VWS V14.01,2013-03-30 16:17:00,
2013-03-30 12:22:00,47.6,28.9,30.21,ESE,108,1.0,8.0,48,0.00,,---,0.00,VWS V14.01,2013-03-30 16:22:00,
2013-03-30 12:27:00,48.6,31.3,30.21,SW,228,2.0,8.0,51,0.00,,---,0.00,VWS V14.01,2013-03-30 16:27:00,
2013-03-30 12:32:00,49.0,30.7,30.21,ENE,61,2.0,6.0,49,0.00,,---,0.00,VWS V14.01,2013-03-30 16:32:00,
2013-03-30 12:37:00,49.4,27.3,30.21,SSE,160,1.0,6.0,42,0.00,,---,0.00,VWS V14.01,2013-03-30 16:37:00,
2013-03-30 12:42:00,49.6,29.7,30.22,SSE,156,4.0,9.0,46,0.00,,---,0.00,VWS V14.01,2013-03-30 16:42:00,
2013-03-30 12:47:00,50.4,29.9,30.22,ESE,122,6.0,9.0,45,0.00,,---,0.00,VWS V14.01,2013-03-30 16:47:00,
2013-03-30 12:52:00,49.3,28.9,30.22,WSW,250,2.0,9.0,45,0.00,,---,0.00,VWS V14.01,2013-03-30 16:52:00,
2013-03-30 12:57:00,49.5,29.6,30.21,East,90,2.0,9.0,46,0.00,,---,0.00,VWS V14.01,2013-03-30 16:57:00,
2013-03-30 13:02:00,49.2,27.1,30.19,NE,50,4.0,8.0,42,0.00,,---,0.00,VWS V14.01,2013-03-30 17:02:00,
2013-03-30 13:07:00,48.9,28.0,30.18,NW,306,2.0,8.0,44,0.00,,---,0.00,VWS V14.01,2013-03-30 17:07:00,
2013-03-30 13:13:00,49.2,29.9,30.18,SE,124,4.0,8.0,47,0.00,,---,0.00,VWS V14.01,2013-03-30 17:13:00,
2013-03-30 13:18:00,50.2,28.0,30.18,ESE,118,3.0,8.0,42,0.00,,---,0.00,VWS V14.01,2013-03-30 17:18:00,
2013-03-30 13:23:00,50.2,28.6,30.18,SE,137,1.0,8.0,43,0.00,,---,0.00,VWS V14.01,2013-03-30 17:23:00,
2013-03-30 13:28:00,50.6,29.0,30.18,SSE,165,4.0,8.0,43,0.00,,---,0.00,VWS V14.01,2013-03-30 17:28:00,
2013-03-30 13:33:00,51.0,31.5,30.18,East,99,7.0,10.0,47,0.00,,---,0.00,VWS V14.01,2013-03-30 17:33:00,
2013-03-30 13:38:00,50.6,29.0,30.18,ESE,116,1.0,10.0,43,0.00,,---,0.00,VWS V14.01,2013-03-30 17:38:00,
2013-03-30 13:43:00,50.6,32.2,30.18,SSE,155,5.0,11.0,49,0.00,,---,0.00,VWS V14.01,2013-03-30 17:43:00,
2013-03-30 13:48:00,50.4,29.9,30.18,ESE,121,6.0,11.0,45,0.00,,---,0.00,VWS V14.01,2013-03-30 17:48:00,
2013-03-30 14:26:00,52.0,30.8,30.16,ESE,122,2.0,12.0,44,0.00,,---,0.00,VWS V14.01,2013-03-30 18:26:00,
2013-03-30 14:31:00,52.4,30.0,30.16,SW,219,6.0,7.0,42,0.00,,---,0.00,VWS V14.01,2013-03-30 18:31:00,
2013-03-30 14:36:00,52.0,27.8,30.16,SSW,210,6.0,9.0,39,0.00,,---,0.00,VWS V14.01,2013-03-30 18:36:00,
2013-03-30 14:41:00,51.9,28.4,30.15,SW,222,11.0,11.0,40,0.00,,---,0.00,VWS V14.01,2013-03-30 18:41:00,
2013-03-30 14:46:00,51.3,27.8,30.16,WSW,239,5.0,12.0,40,0.00,,---,0.00,VWS V14.01,2013-03-30 18:46:00,
2013-03-30 14:52:00,51.6,30.4,30.15,SW,223,7.0,12.0,44,0.00,,---,0.00,VWS V14.01,2013-03-30 18:52:00,
2013-03-30 14:57:00,52.2,28.6,30.15,West,264,0.0,12.0,40,0.00,,---,0.00,VWS V14.01,2013-03-30 18:57:00,
2013-03-30 15:02:00,52.9,29.2,30.15,SSE,153,3.0,6.0,40,0.00,,---,0.00,VWS V14.01,2013-03-30 19:02:00,
2013-03-30 15:07:00,52.6,27.7,30.14,ESE,121,11.0,12.0,38,0.00,,---,0.00,VWS V14.01,2013-03-30 19:07:00,
2013-03-30 15:12:00,52.6,31.9,30.14,SSW,201,3.0,12.0,45,0.00,,---,0.00,VWS V14.01,2013-03-30 19:12:00,
2013-03-30 15:17:00,52.8,31.5,30.14,SSE,160,4.0,12.0,44,0.00,,---,0.00,VWS V14.01,2013-03-30 19:17:00,
2013-03-30 15:22:00,53.0,29.3,30.13,SE,143,9.0,12.0,40,0.00,,---,0.00,VWS V14.01,2013-03-30 19:22:00,
2013-03-30 15:27:00,52.8,29.2,30.13,NE,53,3.0,14.0,40,0.00,,---,0.00,VWS V14.01,2013-03-30 19:27:00,
2013-03-30 15:32:00,53.0,30.5,30.13,SSE,152,4.0,8.0,42,0.00,,---,0.00,VWS V14.01,2013-03-30 19:32:00,
2013-03-30 15:37:00,52.9,28.6,30.12,SSE,158,7.0,9.0,39,0.00,,---,0.00,VWS V14.01,2013-03-30 19:37:00,
2013-03-30 15:42:00,53.2,29.5,30.12,South,179,1.0,10.0,40,0.00,,---,0.00,VWS V14.01,2013-03-30 19:42:00,
2013-03-30 15:47:00,53.3,28.4,30.12,ESE,113,3.0,11.0,38,0.00,,---,0.00,VWS V14.01,2013-03-30 19:47:00,
2013-03-30 15:52:00,53.3,28.4,30.12,East,98,6.0,11.0,38,0.00,,---,0.00,VWS V14.01,2013-03-30 19:52:00,
2013-03-30 15:57:00,53.2,29.5,30.11,ESE,117,8.0,14.0,40,0.00,,---,0.00,VWS V14.01,2013-03-30 19:57:00,
2013-03-30 16:02:00,53.4,30.9,30.12,SW,218,6.0,6.0,42,0.00,,---,0.00,VWS V14.01,2013-03-30 20:02:00,
2013-03-30 16:07:00,53.5,28.5,30.11,SW,228,3.0,10.0,38,0.00,,---,0.00,VWS V14.01,2013-03-30 20:07:00,
2013-03-30 16:12:00,53.7,28.7,30.11,ESE,107,5.0,10.0,38,0.00,,---,0.00,VWS V14.01,2013-03-30 20:12:00,
2013-03-30 16:17:00,54.2,27.9,30.11,ESE,122,3.0,10.0,36,0.00,,---,0.00,VWS V14.01,2013-03-30 20:17:00,
2013-03-30 16:22:00,54.1,30.3,30.11,South,184,7.0,11.0,40,0.00,,---,0.00,VWS V14.01,2013-03-30 20:22:00,
2013-03-30 16:27:00,53.9,27.6,30.11,WSW,245,4.0,11.0,36,0.00,,---,0.00,VWS V14.01,2013-03-30 20:27:00,
2013-03-30 16:32:00,53.8,29.4,30.11,SE,131,6.0,8.0,39,0.00,,---,0.00,VWS V14.01,2013-03-30 20:32:00,
2013-03-30 16:37:00,54.2,29.8,30.10,South,180,1.0,8.0,39,0.00,,---,0.00,VWS V14.01,2013-03-30 20:37:00,
2013-03-30 16:42:00,54.2,28.5,30.10,SE,139,6.0,8.0,37,0.00,,---,0.00,VWS V14.01,2013-03-30 20:42:00,
2013-03-30 16:47:00,54.3,28.6,30.10,South,175,5.0,8.0,37,0.00,,---,0.00,VWS V14.01,2013-03-30 20:47:00,
2013-03-30 16:52:00,54.3,27.9,30.10,SE,146,4.0,9.0,36,0.00,,---,0.00,VWS V14.01,2013-03-30 20:52:00,
2013-03-30 16:57:00,54.1,28.4,30.10,ESE,117,6.0,9.0,37,0.00,,---,0.00,VWS V14.01,2013-03-30 20:57:00,
2013-03-30 17:02:00,53.6,28.6,30.10,ESE,115,4.0,6.0,38,0.00,,---,0.00,VWS V14.01,2013-03-30 21:02:00,
2013-03-30 17:07:00,53.9,28.2,30.09,East,90,4.0,7.0,37,0.00,,---,0.00,VWS V14.01,2013-03-30 21:07:00,
2013-03-30 17:12:00,54.1,28.4,30.09,SE,134,2.0,8.0,37,0.00,,---,0.00,VWS V14.01,2013-03-30 21:12:00,
2013-03-30 17:18:00,54.3,28.6,30.09,SSE,160,1.0,8.0,37,0.00,,---,0.00,VWS V14.01,2013-03-30 21:18:00,
2013-03-30 17:23:00,54.5,28.8,30.09,ESE,121,4.0,8.0,37,0.00,,---,0.00,VWS V14.01,2013-03-30 21:23:00,
2013-03-30 17:28:00,54.7,29.6,30.09,SSW,200,3.0,8.0,38,0.00,,---,0.00,VWS V14.01,2013-03-30 21:28:00,
2013-03-30 17:33:00,55.0,29.9,30.09,South,184,1.0,4.0,38,0.00,,---,0.00,VWS V14.01,2013-03-30 21:33:00,
2013-03-30 17:38:00,54.9,29.8,30.09,SSW,200,3.0,10.0,38,0.00,,---,0.00,VWS V14.01,2013-03-30 21:38:00,
2013-03-30 17:43:00,54.2,29.2,30.09,SSE,158,3.0,10.0,38,0.00,,---,0.00,VWS V14.01,2013-03-30 21:43:00,
2013-03-30 17:48:00,54.1,29.1,30.09,ESE,115,3.0,10.0,38,0.00,,---,0.00,VWS V14.01,2013-03-30 21:48:00,
2013-03-30 17:53:00,53.7,28.7,30.09,SE,124,3.0,10.0,38,0.00,,---,0.00,VWS V14.01,2013-03-30 21:53:00,
2013-03-30 17:58:00,53.7,28.7,30.09,ESE,113,9.0,10.0,38,0.00,,---,0.00,VWS V14.01,2013-03-30 21:58:00,
2013-03-30 18:03:00,53.7,29.4,30.09,SE,139,2.0,6.0,39,0.00,,---,0.00,VWS V14.01,2013-03-30 22:03:00,
2013-03-30 18:08:00,54.0,29.6,30.09,South,169,1.0,6.0,39,0.00,,---,0.00,VWS V14.01,2013-03-30 22:08:00,
2013-03-30 18:13:00,54.2,29.8,30.09,SSW,198,2.0,7.0,39,0.00,,---,0.00,VWS V14.01,2013-03-30 22:13:00,
2013-03-30 18:18:00,54.3,28.6,30.09,SW,226,2.0,7.0,37,0.00,,---,0.00,VWS V14.01,2013-03-30 22:18:00,
2013-03-30 18:23:00,54.3,28.6,30.09,SE,139,1.0,7.0,37,0.00,,---,0.00,VWS V14.01,2013-03-30 22:23:00,
2013-03-30 18:28:00,54.2,29.2,30.09,SSW,204,2.0,7.0,38,0.00,,---,0.00,VWS V14.01,2013-03-30 22:28:00,
2013-03-30 18:33:00,54.0,29.0,30.09,SSW,195,3.0,6.0,38,0.00,,---,0.00,VWS V14.01,2013-03-30 22:33:00,
2013-03-30 18:38:00,53.9,29.5,30.09,SE,132,1.0,7.0,39,0.00,,---,0.00,VWS V14.01,2013-03-30 22:38:00,
2013-03-30 18:43:00,53.7,30.0,30.09,South,184,1.0,7.0,40,0.00,,---,0.00,VWS V14.01,2013-03-30 22:43:00,
2013-03-30 18:48:00,53.6,29.3,30.09,SSE,160,3.0,7.0,39,0.00,,---,0.00,VWS V14.01,2013-03-30 22:48:00,
2013-03-30 18:53:00,53.4,28.5,30.09,SSE,165,1.0,7.0,38,0.00,,---,0.00,VWS V14.01,2013-03-30 22:53:00,
2013-03-30 18:58:00,53.1,29.4,30.09,SSW,195,2.0,8.0,40,0.00,,---,0.00,VWS V14.01,2013-03-30 22:58:00,
2013-03-30 19:03:00,52.7,28.5,30.09,SW,219,6.0,7.0,39,0.00,,---,0.00,VWS V14.01,2013-03-30 23:03:00,
2013-03-30 19:08:00,52.3,28.7,30.10,South,176,6.0,7.0,40,0.00,,---,0.00,VWS V14.01,2013-03-30 23:08:00,
2013-03-30 19:13:00,51.9,29.0,30.09,SSE,162,2.0,8.0,41,0.00,,---,0.00,VWS V14.01,2013-03-30 23:13:00,
2013-03-30 19:18:00,51.4,29.7,30.09,SE,146,2.0,8.0,43,0.00,,---,0.00,VWS V14.01,2013-03-30 23:18:00,
2013-03-30 19:23:00,50.8,29.7,30.09,SSE,155,1.0,8.0,44,0.00,,---,0.00,VWS V14.01,2013-03-30 23:23:00,
2013-03-30 19:28:00,50.4,29.3,30.09,SSE,152,2.0,8.0,44,0.00,,---,0.00,VWS V14.01,2013-03-30 23:28:00,
2013-03-30 19:33:00,50.1,29.6,30.09,SSW,202,0.0,2.0,45,0.00,,---,0.00,VWS V14.01,2013-03-30 23:33:00,
2013-03-30 19:38:00,49.6,29.1,30.09,South,188,0.0,3.0,45,0.00,,---,0.00,VWS V14.01,2013-03-30 23:38:00,
2013-03-30 19:43:00,49.1,29.2,30.09,SSE,156,0.0,3.0,46,0.00,,---,0.00,VWS V14.01,2013-03-30 23:43:00,
2013-03-30 19:48:00,48.8,29.0,30.10,SE,143,0.0,3.0,46,0.00,,---,0.00,VWS V14.01,2013-03-30 23:48:00,
2013-03-30 19:53:00,48.4,29.1,30.10,SSE,148,0.0,3.0,47,0.00,,---,0.00,VWS V14.01,2013-03-30 23:53:00,
2013-03-30 19:59:00,48.0,29.3,30.09,ESE,113,1.0,3.0,48,0.00,,---,0.00,VWS V14.01,2013-03-30 23:59:00,
2013-03-30 20:04:00,47.8,29.1,30.09,ESE,113,0.0,1.0,48,0.00,,---,0.00,VWS V14.01,2013-03-31 00:04:00,
2013-03-30 20:09:00,47.6,29.4,30.09,ESE,113,0.0,1.0,49,0.00,,---,0.00,VWS V14.01,2013-03-31 00:09:00,
2013-03-30 20:14:00,47.6,29.4,30.09,ESE,113,0.0,1.0,49,0.00,,---,0.00,VWS V14.01,2013-03-31 00:14:00,
2013-03-30 20:19:00,47.5,28.8,30.09,ESE,113,0.0,1.0,48,0.00,,---,0.00,VWS V14.01,2013-03-31 00:19:00,
2013-03-30 20:24:00,47.3,28.6,30.09,ESE,113,0.0,1.0,48,0.00,,---,0.00,VWS V14.01,2013-03-31 00:24:00,
2013-03-30 20:29:00,46.9,28.8,30.09,ESE,113,0.0,1.0,49,0.00,,---,0.00,VWS V14.01,2013-03-31 00:29:00,
2013-03-30 20:34:00,46.5,28.9,30.09,ESE,113,0.0,1.0,50,0.00,,---,0.00,VWS V14.01,2013-03-31 00:34:00,
2013-03-30 20:39:00,45.9,29.3,30.09,ESE,113,0.0,1.0,52,0.00,,---,0.00,VWS V14.01,2013-03-31 00:39:00,
2013-03-30 20:44:00,45.2,28.6,30.09,ESE,113,0.0,1.0,52,0.00,,---,0.00,VWS V14.01,2013-03-31 00:44:00,
2013-03-30 20:49:00,44.8,28.3,30.09,ESE,113,0.0,1.0,52,0.00,,---,0.00,VWS V14.01,2013-03-31 00:49:00,
2013-03-30 20:54:00,44.4,28.4,30.09,ESE,113,0.0,1.0,53,0.00,,---,0.00,VWS V14.01,2013-03-31 00:54:00,
2013-03-30 20:59:00,44.2,28.6,30.09,ESE,113,0.0,1.0,54,0.00,,---,0.00,VWS V14.01,2013-03-31 00:59:00,
2013-03-30 21:04:00,44.0,29.3,30.09,ESE,113,0.0,0.0,56,0.00,,---,0.00,VWS V14.01,2013-03-31 01:04:00,
2013-03-30 21:09:00,43.6,29.0,30.08,ESE,113,0.0,0.0,56,0.00,,---,0.00,VWS V14.01,2013-03-31 01:09:00,
2013-03-30 21:14:00,43.4,29.2,30.08,ESE,113,0.0,0.0,57,0.00,,---,0.00,VWS V14.01,2013-03-31 01:14:00,
2013-03-30 21:19:00,43.0,29.7,30.08,ESE,113,0.0,1.0,59,0.00,,---,0.00,VWS V14.01,2013-03-31 01:19:00,
2013-03-30 21:24:00,42.7,29.8,30.08,ESE,113,0.0,1.0,60,0.00,,---,0.00,VWS V14.01,2013-03-31 01:24:00,
2013-03-30 21:29:00,42.4,29.5,30.08,ESE,113,0.0,1.0,60,0.00,,---,0.00,VWS V14.01,2013-03-31 01:29:00,
2013-03-30 21:34:00,42.3,29.4,30.08,ESE,113,0.0,0.0,60,0.00,,---,0.00,VWS V14.01,2013-03-31 01:34:00,
2013-03-30 21:39:00,42.4,29.9,30.08,ESE,113,0.0,1.0,61,0.00,,---,0.00,VWS V14.01,2013-03-31 01:39:00,
2013-03-30 21:44:00,42.4,29.9,30.08,SSE,148,0.0,1.0,61,0.00,,---,0.00,VWS V14.01,2013-03-31 01:44:00,
2013-03-30 21:49:00,42.4,30.3,30.08,SSE,157,0.0,1.0,62,0.00,,---,0.00,VWS V14.01,2013-03-31 01:49:00,
2013-03-30 21:54:00,42.2,30.1,30.08,SSE,156,0.0,1.0,62,0.00,,---,0.00,VWS V14.01,2013-03-31 01:54:00,
2013-03-30 22:00:00,41.9,30.2,30.08,SSE,155,0.0,1.0,63,0.00,,---,0.00,VWS V14.01,2013-03-31 02:00:00,
2013-03-30 22:05:00,41.6,30.3,30.07,SSE,155,0.0,0.0,64,0.00,,---,0.00,VWS V14.01,2013-03-31 02:05:00,
2013-03-30 22:10:00,41.3,30.4,30.07,SSE,155,0.0,0.0,65,0.00,,---,0.00,VWS V14.01,2013-03-31 02:10:00,
2013-03-30 22:15:00,40.9,30.4,30.07,SSE,155,0.0,0.0,66,0.00,,---,0.00,VWS V14.01,2013-03-31 02:15:00,
2013-03-30 22:20:00,40.7,30.6,30.07,SSE,155,0.0,0.0,67,0.00,,---,0.00,VWS V14.01,2013-03-31 02:20:00,
2013-03-30 22:25:00,40.6,30.5,30.07,SSE,155,0.0,0.0,67,0.00,,---,0.00,VWS V14.01,2013-03-31 02:25:00,
2013-03-30 22:30:00,40.5,30.8,30.07,SSE,155,1.0,1.0,68,0.00,,---,0.00,VWS V14.01,2013-03-31 02:30:00,
2013-03-30 22:35:00,40.7,31.0,30.07,SE,146,0.0,1.0,68,0.00,,---,0.00,VWS V14.01,2013-03-31 02:35:00,
2013-03-30 22:40:00,40.6,30.9,30.07,SSE,148,0.0,1.0,68,0.00,,---,0.00,VWS V14.01,2013-03-31 02:40:00,
2013-03-30 22:45:00,40.9,31.2,30.07,SSE,148,1.0,1.0,68,0.00,,---,0.00,VWS V14.01,2013-03-31 02:45:00,
2013-03-30 22:50:00,41.1,31.4,30.06,SSE,148,1.0,2.0,68,0.00,,---,0.00,VWS V14.01,2013-03-31 02:50:00,
2013-03-30 22:55:00,41.1,31.7,30.06,SSE,150,1.0,2.0,69,0.00,,---,0.00,VWS V14.01,2013-03-31 02:55:00,
2013-03-30 23:00:00,41.2,31.8,30.06,SSE,155,1.0,2.0,69,0.00,,---,0.00,VWS V14.01,2013-03-31 03:00:00,
2013-03-30 23:05:00,41.6,31.8,30.06,South,170,2.0,2.0,68,0.00,,---,0.00,VWS V14.01,2013-03-31 03:05:00,
2013-03-30 23:10:00,42.0,31.9,30.06,SE,139,1.0,3.0,67,0.00,,---,0.00,VWS V14.01,2013-03-31 03:10:00,
2013-03-30 23:15:00,42.4,31.9,30.06,SSE,162,2.0,3.0,66,0.00,,---,0.00,VWS V14.01,2013-03-31 03:15:00,
2013-03-30 23:20:00,42.7,31.4,30.06,SE,142,1.0,3.0,64,0.00,,---,0.00,VWS V14.01,2013-03-31 03:20:00,
2013-03-30 23:25:00,43.1,31.8,30.06,SSE,150,1.0,3.0,64,0.00,,---,0.00,VWS V14.01,2013-03-31 03:25:00,
2013-03-30 23:30:00,43.4,31.3,30.06,SE,129,2.0,2.0,62,0.00,,---,0.00,VWS V14.01,2013-03-31 03:30:00,
2013-03-30 23:35:00,43.7,31.5,30.05,SE,141,3.0,5.0,62,0.00,,---,0.00,VWS V14.01,2013-03-31 03:35:00,
2013-03-30 23:40:00,44.2,31.6,30.05,SE,127,3.0,5.0,61,0.00,,---,0.00,VWS V14.01,2013-03-31 03:40:00,
2013-03-30 23:45:00,44.5,31.5,30.05,SE,138,2.0,6.0,60,0.00,,---,0.00,VWS V14.01,2013-03-31 03:45:00,
2013-03-30 23:50:00,45.1,32.1,30.05,SE,127,4.0,6.0,60,0.00,,---,0.00,VWS V14.01,2013-03-31 03:50:00,
2013-03-30 23:55:00,45.4,32.3,30.05,SE,129,6.0,8.0,60,0.00,,---,0.00,VWS V14.01,2013-03-31 03:55:00,